Time;durP1;ratioP1;P1;durP2;ratioP2;P2;SDS_P1;SDS_P2;PMS_P1;PMS_P2;Temp;Humidity;BMP_temperature;BMP_pressure;BME280_temperature;BME280_humidity;BME280_pressure;Samples;Min_cycle;Max_cycle;Signal;HPM_P1;HPM_P2
2023/03/17 00:00:23;;;;;;;3.10;1.10;;;1.60;93.80;;;;;;5106084;27;20978;-78
2023/03/17 00:02:53;;;;;;;2.60;1.53;;;1.60;93.80;;;;;;5103331;28;20469;-78
2023/03/17 00:05:25;;;;;;;4.00;1.80;;;1.60;93.80;;;;;;5096495;28;20451;-77
2023/03/17 00:07:54;;;;;;;3.80;1.50;;;1.60;93.90;;;;;;5095877;28;20503;-77
2023/03/17 00:10:24;;;;;;;2.30;1.47;;;1.50;93.90;;;;;;5106261;28;20494;-77
2023/03/17 00:12:53;;;;;;;2.00;1.90;;;1.50;94.00;;;;;;5106952;28;20446;-77
2023/03/17 00:15:21;;;;;;;2.07;1.43;;;1.60;93.80;;;;;;5098605;28;20446;-78
2023/03/17 00:17:49;;;;;;;1.20;0.93;;;1.60;94.00;;;;;;5098466;28;20997;-78
2023/03/17 00:20:24;;;;;;;2.33;1.47;;;1.60;93.60;;;;;;5100411;28;20443;-78
2023/03/17 00:22:51;;;;;;;3.53;1.80;;;1.60;94.00;;;;;;5096313;28;20457;-76
2023/03/17 00:25:22;;;;;;;1.80;1.20;;;1.50;94.00;;;;;;5103406;28;20490;-77
2023/03/17 00:27:49;;;;;;;3.50;2.40;;;1.50;93.90;;;;;;5100367;28;20446;-76
2023/03/17 00:30:17;;;;;;;2.03;1.70;;;1.50;94.20;;;;;;5095303;28;21252;-76
2023/03/17 00:32:45;;;;;;;1.50;1.40;;;1.40;94.10;;;;;;5090625;28;20843;-77
2023/03/17 00:35:22;;;;;;;1.50;1.40;;;1.40;94.40;;;;;;5102538;28;20455;-76
2023/03/17 00:37:51;;;;;;;6.77;2.33;;;1.30;94.20;;;;;;5102372;28;20578;-77
2023/03/17 00:40:22;;;;;;;3.10;1.70;;;1.30;94.30;;;;;;5098311;28;20723;-76
2023/03/17 00:42:50;;;;;;;4.47;1.97;;;1.30;94.70;;;;;;5099688;28;20454;-76
2023/03/17 00:45:17;;;;;;;9.37;1.50;;;1.30;94.60;;;;;;5102980;28;20474;-77
2023/03/17 00:47:44;;;;;;;2.73;1.20;;;1.30;94.40;;;;;;5093881;28;20465;-77
2023/03/17 00:50:16;;;;;;;11.23;2.83;;;1.30;94.20;;;;;;5099569;28;20557;-78
2023/03/17 00:52:45;;;;;;;3.63;1.67;;;1.20;94.60;;;;;;5099427;28;20570;-76
2023/03/17 00:55:13;;;;;;;1.60;1.50;;;1.20;94.50;;;;;;5105318;28;20482;-76
2023/03/17 00:57:41;;;;;;;2.10;1.80;;;1.20;94.60;;;;;;5103421;28;20446;-77
2023/03/17 01:00:19;;;;;;;2.47;1.47;;;1.30;94.50;;;;;;5094906;28;20463;-76
2023/03/17 01:02:46;;;;;;;4.13;1.70;;;1.30;94.20;;;;;;5093318;28;20446;-76
2023/03/17 01:05:14;;;;;;;2.17;1.33;;;1.20;94.80;;;;;;5102560;28;21159;-76
2023/03/17 01:07:47;;;;;;;2.00;1.67;;;1.20;94.70;;;;;;5096406;28;20537;-76
2023/03/17 01:10:17;;;;;;;2.10;1.47;;;1.20;94.60;;;;;;5104239;28;20446;-78
2023/03/17 01:12:45;;;;;;;2.57;1.50;;;1.10;94.60;;;;;;5096852;28;20496;-78
2023/03/17 01:15:12;;;;;;;1.40;1.30;;;1.10;94.90;;;;;;5097605;28;21020;-77
2023/03/17 01:17:40;;;;;;;2.03;1.40;;;1.10;94.80;;;;;;5104366;28;20946;-77
2023/03/17 01:20:20;;;;;;;1.93;1.53;;;1.20;94.50;;;;;;5104120;28;20924;-77
2023/03/17 01:22:49;;;;;;;1.40;1.30;;;1.20;94.60;;;;;;5105126;28;20602;-78
2023/03/17 01:25:17;;;;;;;2.80;1.30;;;1.20;94.60;;;;;;5109722;28;20907;-78
2023/03/17 01:27:45;;;;;;;6.87;1.47;;;1.20;94.60;;;;;;5110457;28;21109;-77
2023/03/17 01:30:23;;;;;;;4.60;1.60;;;1.20;94.60;;;;;;5109269;28;20454;-77
2023/03/17 01:32:50;;;;;;;4.00;2.17;;;1.20;94.70;;;;;;5103408;28;20459;-78
2023/03/17 01:35:18;;;;;;;3.43;2.43;;;1.20;94.90;;;;;;5096031;28;20962;-78
2023/03/17 01:37:46;;;;;;;2.50;1.30;;;1.10;94.90;;;;;;5106099;28;20446;-77
2023/03/17 01:40:18;;;;;;;2.13;1.80;;;1.20;94.60;;;;;;5100330;28;20459;-78
2023/03/17 01:42:48;;;;;;;3.47;1.20;;;1.10;95.00;;;;;;5096580;28;20447;-77
2023/03/17 01:45:51;;;;;;;2.63;1.90;;;1.20;94.50;;;;;;5101806;28;20458;-80
2023/03/17 01:48:19;;;;;;;4.97;1.83;;;1.20;94.60;;;;;;5102682;28;20510;-78
2023/03/17 01:50:47;;;;;;;2.70;1.43;;;1.20;94.60;;;;;;5099712;28;20528;-79
2023/03/17 01:53:15;;;;;;;1.97;1.77;;;1.20;94.50;;;;;;5104845;27;20827;-77
2023/03/17 01:55:45;;;;;;;4.07;1.87;;;1.20;94.40;;;;;;5104008;28;20450;-78
2023/03/17 01:58:15;;;;;;;1.73;1.23;;;1.20;94.60;;;;;;5107440;28;20523;-79
2023/03/17 02:00:45;;;;;;;4.60;1.33;;;1.20;94.50;;;;;;5105980;28;20557;-77
2023/03/17 02:03:12;;;;;;;2.40;1.20;;;1.10;94.50;;;;;;5102904;28;21018;-79
2023/03/17 02:05:40;;;;;;;4.10;1.57;;;1.10;94.60;;;;;;5098663;28;20444;-78
2023/03/17 02:08:11;;;;;;;2.03;1.80;;;1.10;94.80;;;;;;5105740;28;20802;-77
2023/03/17 02:10:38;;;;;;;2.47;1.17;;;1.10;94.90;;;;;;5097675;28;20819;-77
2023/03/17 02:13:08;;;;;;;3.27;1.63;;;1.00;94.80;;;;;;5105365;28;21038;-76
2023/03/17 02:15:39;;;;;;;1.70;1.20;;;1.00;95.10;;;;;;5108824;28;20450;-78
2023/03/17 02:18:07;;;;;;;4.03;1.33;;;1.00;95.00;;;;;;5104842;28;20450;-75
2023/03/17 02:21:14;;;;;;;1.63;1.27;;;1.00;95.10;;;;;;5104599;28;20862;-76
2023/03/17 02:23:43;;;;;;;1.50;1.40;;;1.00;95.10;;;;;;5100861;28;20482;-74
2023/03/17 02:26:11;;;;;;;3.50;1.37;;;1.00;95.20;;;;;;5105604;28;20531;-74
2023/03/17 02:28:38;;;;;;;2.27;2.17;;;1.00;95.10;;;;;;5108347;28;20462;-76
2023/03/17 02:31:05;;;;;;;2.37;1.53;;;1.00;95.10;;;;;;5107790;28;20478;-75
2023/03/17 02:33:32;;;;;;;2.17;1.60;;;0.90;95.20;;;;;;5107394;28;20450;-75
2023/03/17 02:36:00;;;;;;;1.83;1.20;;;1.00;95.20;;;;;;5094622;28;20509;-74
2023/03/17 02:38:27;;;;;;;3.27;1.50;;;1.00;95.10;;;;;;5092368;28;20476;-74
2023/03/17 02:40:55;;;;;;;5.60;1.77;;;1.10;95.00;;;;;;5102844;28;20474;-76
2023/03/17 02:43:22;;;;;;;2.50;1.67;;;1.00;95.20;;;;;;5101343;28;20470;-75
2023/03/17 02:45:49;;;;;;;1.87;1.67;;;1.10;95.00;;;;;;5106202;28;20454;-74
2023/03/17 02:48:19;;;;;;;3.30;1.90;;;1.00;95.20;;;;;;5105229;27;20480;-78
2023/03/17 02:50:46;;;;;;;5.13;2.70;;;1.00;95.50;;;;;;5100578;28;20982;-76
2023/03/17 02:53:14;;;;;;;4.83;1.67;;;1.00;95.30;;;;;;5102997;28;20922;-75
2023/03/17 02:55:42;;;;;;;2.77;2.00;;;0.90;95.40;;;;;;5097922;28;20455;-76
2023/03/17 02:58:10;;;;;;;6.33;1.70;;;0.90;95.90;;;;;;5099613;28;20450;-75
2023/03/17 03:00:39;;;;;;;1.60;1.50;;;0.90;95.60;;;;;;5104468;28;20456;-75
2023/03/17 03:03:06;;;;;;;1.53;1.17;;;0.90;95.80;;;;;;5104753;28;20906;-77
2023/03/17 03:05:34;;;;;;;2.43;1.30;;;1.00;95.50;;;;;;5107401;28;20466;-76
2023/03/17 03:08:01;;;;;;;2.80;1.83;;;0.90;95.60;;;;;;5108143;28;20458;-75
2023/03/17 03:10:28;;;;;;;2.33;1.60;;;1.00;95.40;;;;;;5101203;28;20447;-73
2023/03/17 03:12:55;;;;;;;2.73;1.40;;;1.00;95.30;;;;;;5105585;28;20474;-76
2023/03/17 03:15:23;;;;;;;1.30;1.20;;;1.00;95.20;;;;;;5104549;28;20956;-75
2023/03/17 03:17:52;;;;;;;4.60;1.40;;;1.00;94.90;;;;;;5096634;28;20866;-75
2023/03/17 03:20:20;;;;;;;1.80;1.20;;;1.00;95.20;;;;;;5107478;28;20451;-76
2023/03/17 03:22:47;;;;;;;2.15;1.55;;;0.90;95.50;;;;;;5104914;28;20919;-74
2023/03/17 03:25:14;;;;;;;7.43;1.65;;;1.00;95.10;;;;;;5101212;28;20778;-76
2023/03/17 03:27:41;;;;;;;2.20;1.70;;;0.90;95.00;;;;;;5094945;28;20201;-75
2023/03/17 03:30:10;;;;;;;1.93;1.57;;;1.00;95.20;;;;;;5098862;28;20446;-74
2023/03/17 03:32:38;;;;;;;2.15;1.33;;;1.00;95.30;;;;;;5095934;28;20570;-75
2023/03/17 03:35:07;;;;;;;4.33;2.03;;;1.00;95.40;;;;;;5105935;28;20242;-75
2023/03/17 03:37:34;;;;;;;2.10;1.33;;;0.90;95.20;;;;;;5100055;28;20500;-74
2023/03/17 03:40:01;;;;;;;2.45;1.40;;;0.90;95.10;;;;;;5099481;28;20488;-74
2023/03/17 03:42:28;;;;;;;4.20;2.03;;;0.90;95.50;;;;;;5102700;28;20205;-77
2023/03/17 03:44:55;;;;;;;2.83;1.73;;;0.80;95.50;;;;;;5105367;28;20454;-74
2023/03/17 03:47:22;;;;;;;1.97;1.03;;;0.80;95.80;;;;;;5094742;28;20455;-76
2023/03/17 03:49:50;;;;;;;3.43;1.47;;;0.80;95.80;;;;;;5100086;28;20458;-74
2023/03/17 03:52:17;;;;;;;3.03;1.70;;;0.80;95.60;;;;;;5105992;28;20502;-76
2023/03/17 03:54:44;;;;;;;3.33;1.43;;;0.80;95.20;;;;;;5099079;28;21179;-76
2023/03/17 03:57:11;;;;;;;1.53;1.23;;;0.80;95.40;;;;;;5105642;28;21005;-75
2023/03/17 03:59:38;;;;;;;1.57;1.20;;;0.80;95.50;;;;;;5101469;28;20598;-77
2023/03/17 04:02:05;;;;;;;2.53;1.20;;;0.90;95.30;;;;;;5098387;28;20451;-77
2023/03/17 04:04:32;;;;;;;3.53;1.77;;;0.80;95.30;;;;;;5106050;28;20469;-75
2023/03/17 04:07:01;;;;;;;5.60;1.83;;;0.90;94.90;;;;;;5095194;28;20614;-75
2023/03/17 04:09:28;;;;;;;2.63;1.67;;;0.80;95.20;;;;;;5096647;28;20488;-74
2023/03/17 04:11:55;;;;;;;2.43;1.57;;;0.80;95.40;;;;;;5105423;28;20486;-77
2023/03/17 04:14:22;;;;;;;3.90;1.37;;;0.80;95.50;;;;;;5099337;28;20452;-76
2023/03/17 04:16:49;;;;;;;1.43;1.23;;;0.80;95.80;;;;;;5104389;28;20528;-76
2023/03/17 04:19:16;;;;;;;4.20;1.97;;;0.80;95.70;;;;;;5103937;28;20458;-75
2023/03/17 04:21:44;;;;;;;1.83;1.30;;;0.80;95.40;;;;;;5101091;28;20462;-76
2023/03/17 04:24:13;;;;;;;1.50;1.10;;;0.70;95.30;;;;;;5104291;28;20489;-76
2023/03/17 04:26:41;;;;;;;2.27;1.43;;;0.80;95.20;;;;;;5101150;28;20475;-75
2023/03/17 04:29:09;;;;;;;1.43;1.33;;;0.70;95.60;;;;;;5096948;28;20474;-77
2023/03/17 04:31:38;;;;;;;4.10;1.50;;;0.70;95.30;;;;;;5098969;28;20497;-76
2023/03/17 04:34:05;;;;;;;4.10;1.40;;;0.70;95.30;;;;;;5101762;28;20458;-75
2023/03/17 04:36:33;;;;;;;1.73;1.10;;;0.70;95.50;;;;;;5102536;28;20469;-76
2023/03/17 04:39:00;;;;;;;5.53;1.20;;;0.70;95.70;;;;;;5096009;28;21024;-76
2023/03/17 04:41:29;;;;;;;2.77;1.50;;;0.70;95.50;;;;;;5095437;28;20463;-77
2023/03/17 04:43:56;;;;;;;2.33;1.47;;;0.80;95.20;;;;;;5094846;28;20450;-75
2023/03/17 04:46:22;;;;;;;3.33;1.47;;;0.80;95.00;;;;;;5095939;28;20511;-76
2023/03/17 04:48:49;;;;;;;2.03;0.97;;;0.70;95.20;;;;;;5100210;28;21028;-75
2023/03/17 04:51:17;;;;;;;2.53;1.10;;;0.60;95.50;;;;;;5097338;28;20520;-76
2023/03/17 04:53:44;;;;;;;2.67;1.60;;;0.60;95.80;;;;;;5100921;28;20565;-76
2023/03/17 04:56:11;;;;;;;2.57;1.57;;;0.60;95.80;;;;;;5105198;28;20454;-76
2023/03/17 04:58:40;;;;;;;2.30;1.57;;;0.60;95.70;;;;;;5108983;28;21007;-76
2023/03/17 05:01:07;;;;;;;1.70;1.40;;;0.60;95.30;;;;;;5102669;28;20447;-76
2023/03/17 05:03:35;;;;;;;1.57;1.40;;;0.70;95.50;;;;;;5112593;28;20454;-75
2023/03/17 05:06:03;;;;;;;1.83;1.00;;;0.70;95.80;;;;;;5104017;28;20458;-76
2023/03/17 05:08:30;;;;;;;1.70;1.53;;;0.70;95.30;;;;;;5102099;28;20857;-75
2023/03/17 05:10:58;;;;;;;2.60;0.93;;;0.60;95.40;;;;;;5112992;28;20499;-76
2023/03/17 05:13:26;;;;;;;3.43;2.00;;;0.60;95.50;;;;;;5093285;27;20517;-75
2023/03/17 05:15:55;;;;;;;2.37;1.43;;;0.60;95.50;;;;;;5104568;28;20544;-75
2023/03/17 05:18:24;;;;;;;1.73;1.10;;;0.60;95.70;;;;;;5103403;28;20998;-76
2023/03/17 05:20:51;;;;;;;1.50;1.40;;;0.60;95.60;;;;;;5110712;28;20462;-75
2023/03/17 05:23:18;;;;;;;2.43;1.87;;;0.60;95.70;;;;;;5106674;28;20474;-75
2023/03/17 05:25:45;;;;;;;2.67;1.50;;;0.60;95.60;;;;;;5103033;28;21113;-77
2023/03/17 05:28:13;;;;;;;1.60;1.33;;;0.60;96.00;;;;;;5111866;28;20457;-76
2023/03/17 05:30:40;;;;;;;10.50;2.30;;;0.70;95.80;;;;;;5110735;28;20454;-77
2023/03/17 05:33:09;;;;;;;2.00;1.30;;;0.70;95.40;;;;;;5104205;28;20551;-75
2023/03/17 05:35:35;;;;;;;5.37;1.77;;;0.70;95.30;;;;;;5108506;28;20461;-76
2023/03/17 05:38:02;;;;;;;2.30;1.90;;;0.80;95.50;;;;;;5112140;28;20458;-76
2023/03/17 05:40:30;;;;;;;2.27;2.07;;;0.70;95.70;;;;;;5110449;28;20998;-77
2023/03/17 05:42:57;;;;;;;1.83;1.57;;;0.90;95.70;;;;;;5106108;27;20477;-76
2023/03/17 05:45:24;;;;;;;1.70;1.47;;;0.90;95.40;;;;;;5102813;28;20458;-77
2023/03/17 05:47:51;;;;;;;1.93;1.30;;;0.90;95.50;;;;;;5108059;28;20519;-75
2023/03/17 05:50:19;;;;;;;3.10;1.40;;;1.00;95.30;;;;;;5099268;28;20520;-75
2023/03/17 05:52:47;;;;;;;4.20;1.47;;;1.00;95.30;;;;;;5101414;28;20513;-76
2023/03/17 05:55:14;;;;;;;3.90;2.30;;;1.10;95.00;;;;;;5109705;28;20514;-78
2023/03/17 05:57:41;;;;;;;3.00;1.67;;;1.10;95.20;;;;;;5104532;28;20451;-75
2023/03/17 06:00:10;;;;;;;4.20;1.67;;;1.10;94.80;;;;;;5110566;28;20946;-77
2023/03/17 06:02:38;;;;;;;4.63;1.70;;;1.20;95.10;;;;;;5103357;28;20540;-77
2023/03/17 06:05:06;;;;;;;3.20;1.47;;;1.20;94.90;;;;;;5101417;28;20481;-76
2023/03/17 06:07:36;;;;;;;2.93;1.17;;;1.30;94.60;;;;;;5103453;28;20458;-76
2023/03/17 06:10:04;;;;;;;2.37;1.13;;;1.30;94.90;;;;;;5104188;28;20438;-75
2023/03/17 06:12:30;;;;;;;8.40;1.63;;;1.30;94.50;;;;;;5107552;28;20474;-75
2023/03/17 06:14:57;;;;;;;5.87;2.10;;;1.40;94.30;;;;;;5099048;28;20511;-76
2023/03/17 06:17:25;;;;;;;3.80;1.60;;;1.40;94.10;;;;;;5098314;28;20501;-76
2023/03/17 06:19:52;;;;;;;3.67;1.97;;;1.50;94.60;;;;;;5106164;28;20446;-77
2023/03/17 06:22:19;;;;;;;3.00;1.67;;;1.50;94.20;;;;;;5092119;28;20471;-79
2023/03/17 06:24:47;;;;;;;1.67;1.33;;;1.60;94.00;;;;;;5102281;28;20466;-78
2023/03/17 06:27:14;;;;;;;1.53;1.10;;;1.70;94.20;;;;;;5100998;28;20973;-76
2023/03/17 06:29:41;;;;;;;2.97;1.60;;;1.80;94.30;;;;;;5101085;28;21065;-76
2023/03/17 06:32:08;;;;;;;1.17;1.07;;;1.80;93.80;;;;;;5101981;28;20482;-76
2023/03/17 06:34:35;;;;;;;1.77;1.33;;;1.80;93.90;;;;;;5097794;28;20990;-76
2023/03/17 06:37:03;;;;;;;1.70;1.33;;;1.90;94.00;;;;;;5101327;28;20854;-77
2023/03/17 06:39:30;;;;;;;1.73;1.63;;;2.00;94.50;;;;;;5108191;28;20848;-76
2023/03/17 06:41:59;;;;;;;1.33;1.20;;;2.00;93.90;;;;;;5097994;28;20508;-79
2023/03/17 06:44:26;;;;;;;3.67;1.27;;;2.10;93.40;;;;;;5097433;28;20443;-75
2023/03/17 06:46:53;;;;;;;4.93;1.37;;;2.20;93.10;;;;;;5106204;28;20450;-77
2023/03/17 06:49:20;;;;;;;2.70;1.23;;;2.40;93.20;;;;;;5103510;28;20458;-76
2023/03/17 06:51:47;;;;;;;1.20;1.10;;;2.50;92.70;;;;;;5100027;28;20453;-78
2023/03/17 06:54:15;;;;;;;2.40;1.17;;;2.70;92.40;;;;;;5098817;28;20501;-79
2023/03/17 06:56:43;;;;;;;3.77;1.60;;;2.80;92.30;;;;;;5102093;28;20449;-82
2023/03/17 06:59:12;;;;;;;2.33;1.00;;;2.90;93.10;;;;;;5100211;28;20471;-78
2023/03/17 07:01:39;;;;;;;2.80;1.17;;;3.00;92.30;;;;;;5105726;28;20480;-77
2023/03/17 07:04:06;;;;;;;13.63;2.33;;;3.20;91.50;;;;;;5107204;28;20488;-78
2023/03/17 07:06:33;;;;;;;5.20;1.27;;;3.30;91.90;;;;;;5107407;28;21254;-75
2023/03/17 07:09:02;;;;;;;6.43;1.53;;;3.30;91.50;;;;;;5092590;28;20447;-77
2023/03/17 07:11:29;;;;;;;4.47;1.40;;;3.40;90.90;;;;;;5110287;27;20499;-74
2023/03/17 07:13:56;;;;;;;1.63;1.20;;;3.40;91.20;;;;;;5100249;28;20494;-75
2023/03/17 07:16:25;;;;;;;2.87;2.27;;;3.30;90.60;;;;;;5106039;28;20496;-76
2023/03/17 07:18:52;;;;;;;2.67;1.57;;;3.20;90.40;;;;;;5106142;28;20897;-74
2023/03/17 07:21:19;;;;;;;1.37;1.10;;;3.20;89.90;;;;;;5106931;28;20934;-75
2023/03/17 07:23:46;;;;;;;2.00;0.90;;;3.10;90.50;;;;;;5094247;28;20495;-74
2023/03/17 07:26:13;;;;;;;1.83;1.43;;;3.30;91.00;;;;;;5103076;28;20481;-76
2023/03/17 07:28:40;;;;;;;1.03;0.93;;;3.30;90.60;;;;;;5107998;28;20507;-75
2023/03/17 07:31:08;;;;;;;2.50;1.40;;;3.40;90.90;;;;;;5105788;28;20815;-75
2023/03/17 07:33:36;;;;;;;1.73;1.17;;;3.50;90.40;;;;;;5096829;28;20493;-74
2023/03/17 07:36:05;;;;;;;3.07;1.30;;;3.70;90.20;;;;;;5107724;28;21067;-75
2023/03/17 07:38:33;;;;;;;1.53;1.30;;;3.90;89.90;;;;;;5107441;28;21044;-75
2023/03/17 07:41:00;;;;;;;1.30;1.00;;;4.10;88.50;;;;;;5101145;28;20454;-75
2023/03/17 07:43:27;;;;;;;2.60;1.43;;;4.30;88.20;;;;;;5098726;28;20867;-75
2023/03/17 07:45:54;;;;;;;1.90;1.20;;;4.50;87.50;;;;;;5099523;28;20521;-75
2023/03/17 07:48:21;;;;;;;3.23;1.20;;;4.70;89.30;;;;;;5105993;28;20446;-77
2023/03/17 07:50:49;;;;;;;2.03;1.57;;;4.90;87.10;;;;;;5098815;28;20458;-74
2023/03/17 07:53:16;;;;;;;5.63;1.00;;;5.20;85.50;;;;;;5101814;28;20581;-77
2023/03/17 07:55:43;;;;;;;4.13;1.90;;;5.20;83.60;;;;;;5103452;28;20446;-74
2023/03/17 07:58:10;;;;;;;5.20;1.40;;;5.20;84.40;;;;;;5105443;28;21205;-78
2023/03/17 08:00:38;;;;;;;4.63;3.23;;;5.30;82.80;;;;;;5107008;28;20438;-76
2023/03/17 08:03:05;;;;;;;8.47;5.17;;;5.40;84.70;;;;;;5107592;28;20475;-76
2023/03/17 08:05:33;;;;;;;4.27;3.03;;;5.60;84.20;;;;;;5107337;28;20792;-74
2023/03/17 08:08:01;;;;;;;3.10;1.50;;;5.60;83.30;;;;;;5096357;28;20454;-77
2023/03/17 08:10:28;;;;;;;2.33;1.20;;;5.60;82.30;;;;;;5103763;28;20442;-75
2023/03/17 08:12:55;;;;;;;38.23;25.83;;;5.50;83.90;;;;;;5104411;28;20490;-74
2023/03/17 08:15:22;;;;;;;11.77;7.77;;;5.40;83.60;;;;;;5106863;28;20515;-74
2023/03/17 08:17:50;;;;;;;44.57;23.80;;;5.50;84.30;;;;;;5106259;28;20450;-78
2023/03/17 08:20:18;;;;;;;19.57;11.30;;;5.70;83.70;;;;;;5106450;28;20446;-75
2023/03/17 08:22:45;;;;;;;11.90;8.03;;;5.90;82.70;;;;;;5095976;28;20807;-76
2023/03/17 08:25:13;;;;;;;2.23;1.20;;;6.10;83.60;;;;;;5102337;28;21046;-75
2023/03/17 08:27:41;;;;;;;21.70;18.13;;;6.10;79.80;;;;;;5100234;28;20447;-75
2023/03/17 08:30:09;;;;;;;7.90;6.07;;;6.00;80.30;;;;;;5106304;28;21020;-75
2023/03/17 08:32:36;;;;;;;38.47;26.87;;;6.30;80.60;;;;;;5103088;28;20554;-74
2023/03/17 08:35:05;;;;;;;25.30;18.97;;;6.40;80.30;;;;;;5099259;28;20454;-77
2023/03/17 08:37:32;;;;;;;10.20;5.07;;;6.40;81.40;;;;;;5100061;28;20562;-76
2023/03/17 08:39:59;;;;;;;2.43;1.77;;;6.60;79.00;;;;;;5095080;28;20924;-75
2023/03/17 08:42:28;;;;;;;3.17;1.80;;;6.40;78.10;;;;;;5095008;28;21457;-81
2023/03/17 08:44:55;;;;;;;11.60;10.40;;;6.40;81.10;;;;;;5099570;28;20505;-76
2023/03/17 08:47:22;;;;;;;3.77;2.17;;;6.40;81.00;;;;;;5098882;28;20447;-77
2023/03/17 08:49:49;;;;;;;2.87;1.60;;;6.50;81.00;;;;;;5098761;28;20466;-75
2023/03/17 08:52:16;;;;;;;2.40;1.07;;;6.60;79.30;;;;;;5092873;28;20442;-75
2023/03/17 08:54:43;;;;;;;2.43;1.10;;;6.60;79.00;;;;;;5104395;28;20491;-74
2023/03/17 08:57:10;;;;;;;1.87;0.97;;;6.60;78.50;;;;;;5096601;28;20638;-77
2023/03/17 08:59:39;;;;;;;1.60;1.40;;;6.80;80.00;;;;;;5099152;28;20503;-75
2023/03/17 09:02:06;;;;;;;1.23;0.90;;;7.00;80.00;;;;;;5105800;28;20523;-77
2023/03/17 09:04:35;;;;;;;1.40;1.23;;;7.20;82.40;;;;;;5106860;28;20548;-75
2023/03/17 09:07:02;;;;;;;1.33;1.23;;;7.20;80.70;;;;;;5097041;28;20494;-75
2023/03/17 09:09:29;;;;;;;1.60;1.50;;;7.20;80.40;;;;;;5106158;28;20503;-77
2023/03/17 09:11:56;;;;;;;1.80;1.33;;;7.10;78.40;;;;;;5103769;28;20539;-76
2023/03/17 09:14:23;;;;;;;3.00;2.10;;;7.10;83.10;;;;;;5099034;28;20534;-74
2023/03/17 09:16:52;;;;;;;4.43;1.50;;;7.30;84.60;;;;;;5106099;28;20469;-75
2023/03/17 09:19:20;;;;;;;1.37;1.00;;;7.60;81.90;;;;;;5091203;28;20451;-75
2023/03/17 09:21:47;;;;;;;1.80;1.47;;;7.50;78.80;;;;;;5099212;28;20447;-76
2023/03/17 09:24:14;;;;;;;2.13;1.20;;;7.50;76.60;;;;;;5091714;28;20475;-75
2023/03/17 09:26:41;;;;;;;2.13;1.20;;;7.80;81.30;;;;;;5095534;28;20478;-76
2023/03/17 09:29:08;;;;;;;1.53;1.10;;;8.10;79.70;;;;;;5106237;28;20446;-76
2023/03/17 09:31:36;;;;;;;2.60;1.70;;;8.00;78.60;;;;;;5104185;28;20455;-76
2023/03/17 09:34:05;;;;;;;1.47;0.83;;;7.90;75.80;;;;;;5101132;28;20566;-76
2023/03/17 09:36:33;;;;;;;3.30;1.17;;;7.80;75.20;;;;;;5098231;28;20442;-77
2023/03/17 09:39:00;;;;;;;1.90;1.80;;;7.90;76.40;;;;;;5106382;28;20586;-76
2023/03/17 09:41:50;;;;;;;2.13;1.30;;;7.90;77.80;;;;;;5104904;27;20446;-77
2023/03/17 09:44:32;;;;;;;2.60;1.07;;;8.10;76.90;;;;;;5107908;28;20466;-76
2023/03/17 09:47:09;;;;;;;1.90;1.00;;;8.30;77.10;;;;;;5105020;28;20448;-76
2023/03/17 09:49:44;;;;;;;1.43;1.33;;;8.40;75.40;;;;;;5109363;28;20462;-77
2023/03/17 09:52:14;;;;;;;1.73;1.37;;;8.30;74.70;;;;;;5109351;28;20453;-77
2023/03/17 09:54:42;;;;;;;3.00;1.67;;;8.60;79.70;;;;;;5105283;28;20489;-76
2023/03/17 09:57:15;;;;;;;1.13;0.90;;;8.70;78.00;;;;;;5104700;28;20872;-76
2023/03/17 09:59:45;;;;;;;2.33;1.67;;;8.60;81.00;;;;;;5101470;28;20450;-77
2023/03/17 10:02:19;;;;;;;1.50;1.40;;;8.60;75.00;;;;;;5104307;28;20460;-79
2023/03/17 10:04:47;;;;;;;2.03;1.87;;;8.70;82.80;;;;;;5100476;28;20454;-78
2023/03/17 10:07:22;;;;;;;2.40;1.70;;;8.70;79.60;;;;;;5104642;28;20469;-77
2023/03/17 10:09:57;;;;;;;4.53;2.07;;;9.20;78.80;;;;;;5093771;28;20445;-75
2023/03/17 10:12:35;;;;;;;1.30;1.20;;;9.30;80.00;;;;;;5101087;28;20462;-76
2023/03/17 10:15:05;;;;;;;3.27;1.40;;;9.00;75.50;;;;;;5104533;28;20568;-79
2023/03/17 10:17:36;;;;;;;2.23;1.63;;;9.10;81.10;;;;;;5109856;28;20509;-76
2023/03/17 10:20:09;;;;;;;2.77;1.83;;;9.30;79.90;;;;;;5101918;28;20449;-76
2023/03/17 10:22:41;;;;;;;2.90;1.60;;;9.50;80.40;;;;;;5101204;28;20948;-76
2023/03/17 10:25:14;;;;;;;3.10;1.80;;;9.50;78.70;;;;;;5107969;28;20544;-76
2023/03/17 10:27:44;;;;;;;3.27;1.53;;;9.70;78.50;;;;;;5108330;28;20454;-76
2023/03/17 10:30:15;;;;;;;3.90;2.00;;;9.90;80.30;;;;;;5107462;28;20459;-74
2023/03/17 10:32:42;;;;;;;2.30;1.53;;;10.20;76.00;;;;;;5108465;28;20470;-76
2023/03/17 10:35:11;;;;;;;2.30;2.10;;;10.30;78.10;;;;;;5107688;28;20546;-79
2023/03/17 10:37:39;;;;;;;4.20;1.60;;;10.20;76.90;;;;;;5100614;28;20464;-76
2023/03/17 10:40:09;;;;;;;3.37;2.33;;;9.80;75.20;;;;;;5109015;27;20507;-75
2023/03/17 10:42:46;;;;;;;5.67;2.00;;;9.90;75.80;;;;;;5102415;28;20459;-78
2023/03/17 10:45:16;;;;;;;2.10;1.63;;;10.10;80.70;;;;;;5108756;28;20454;-74
2023/03/17 10:47:46;;;;;;;2.23;1.90;;;10.30;77.40;;;;;;5100800;28;20449;-75
2023/03/17 10:50:23;;;;;;;2.10;1.87;;;10.30;78.80;;;;;;5103800;28;20459;-76
2023/03/17 10:52:54;;;;;;;3.03;2.10;;;10.50;78.60;;;;;;5098234;28;20446;-73
2023/03/17 10:55:26;;;;;;;1.57;1.47;;;10.80;77.00;;;;;;5097968;28;20878;-73
2023/03/17 10:58:00;;;;;;;2.30;1.60;;;10.90;75.80;;;;;;5108916;28;20438;-75
2023/03/17 11:00:32;;;;;;;2.57;1.83;;;11.10;78.60;;;;;;5100638;28;20838;-75
2023/03/17 11:03:02;;;;;;;6.33;1.73;;;11.20;76.20;;;;;;5108245;28;20921;-74
2023/03/17 11:05:30;;;;;;;2.93;1.73;;;11.10;76.70;;;;;;5107708;28;20482;-75
2023/03/17 11:08:05;;;;;;;2.10;1.53;;;11.20;73.60;;;;;;5107633;28;20669;-75
2023/03/17 11:10:36;;;;;;;2.30;1.67;;;11.30;72.70;;;;;;5093111;28;20880;-76
2023/03/17 11:13:04;;;;;;;2.63;2.23;;;11.40;76.30;;;;;;5094692;28;20439;-76
2023/03/17 11:15:34;;;;;;;3.70;2.13;;;11.10;72.90;;;;;;5106835;28;20547;-77
2023/03/17 11:18:03;;;;;;;3.00;2.03;;;11.20;74.80;;;;;;5107410;28;20434;-77
2023/03/17 11:20:57;;;;;;;2.63;1.73;;;11.40;74.60;;;;;;5100102;28;20463;-74
2023/03/17 11:23:43;;;;;;;3.63;1.73;;;11.50;73.80;;;;;;5098259;28;20470;-77
2023/03/17 11:26:36;;;;;;;4.23;2.03;;;11.70;70.30;;;;;;5101865;28;20581;-76
2023/03/17 11:29:22;;;;;;;4.03;2.07;;;11.70;72.50;;;;;;5103678;28;20462;-76
2023/03/17 11:31:59;;;;;;;2.50;1.13;;;11.60;74.30;;;;;;5106462;28;20515;-76
2023/03/17 11:34:37;;;;;;;1.77;1.67;;;11.80;72.30;;;;;;5107408;28;20507;-74
2023/03/17 11:37:15;;;;;;;3.97;1.63;;;11.90;68.80;;;;;;5105692;28;20454;-77
2023/03/17 11:39:53;;;;;;;1.90;1.53;;;11.90;69.70;;;;;;5103893;28;20461;-74
2023/03/17 11:42:23;;;;;;;4.43;2.40;;;12.10;70.30;;;;;;5107072;28;20515;-74
2023/03/17 11:45:23;;;;;;;3.90;2.20;;;12.00;67.70;;;;;;5107117;28;20515;-74
2023/03/17 11:48:17;;;;;;;4.00;1.90;;;12.30;73.40;;;;;;5105089;28;20565;-75
2023/03/17 11:50:54;;;;;;;2.20;1.77;;;12.60;71.30;;;;;;5099662;28;20459;-74
2023/03/17 11:53:38;;;;;;;1.93;1.57;;;12.60;67.80;;;;;;5103501;28;20531;-75
2023/03/17 11:56:10;;;;;;;2.07;1.70;;;12.80;69.50;;;;;;5100016;28;20490;-74
2023/03/17 11:58:42;;;;;;;2.37;2.17;;;12.70;66.30;;;;;;5100787;28;20466;-76
2023/03/17 12:01:14;;;;;;;4.57;2.23;;;12.60;64.70;;;;;;5101527;28;21028;-75
2023/03/17 12:03:47;;;;;;;8.30;3.03;;;12.70;66.80;;;;;;5104181;28;20973;-76
2023/03/17 12:06:19;;;;;;;5.37;1.57;;;12.80;66.70;;;;;;5103512;28;20466;-74
2023/03/17 12:08:51;;;;;;;4.07;2.00;;;12.70;63.50;;;;;;5104999;28;20550;-74
2023/03/17 12:11:23;;;;;;;1.80;1.63;;;12.50;65.40;;;;;;5105411;28;20447;-77
2023/03/17 12:13:55;;;;;;;4.50;1.93;;;12.30;65.90;;;;;;5103242;28;20950;-75
2023/03/17 12:16:28;;;;;;;2.33;2.13;;;12.30;66.40;;;;;;5106164;28;20553;-75
2023/03/17 12:19:03;;;;;;;2.10;1.47;;;12.50;67.10;;;;;;5101465;28;20453;-76
2023/03/17 12:21:35;;;;;;;3.17;1.90;;;12.80;66.80;;;;;;5103015;28;20474;-75
2023/03/17 12:24:11;;;;;;;2.50;2.30;;;12.70;68.50;;;;;;5098185;28;20824;-75
2023/03/17 12:26:44;;;;;;;8.80;2.80;;;12.70;64.80;;;;;;5102748;28;21133;-74
2023/03/17 12:29:15;;;;;;;3.20;2.47;;;12.80;65.40;;;;;;5104122;28;20965;-75
2023/03/17 12:31:48;;;;;;;6.07;3.23;;;12.90;65.30;;;;;;5102020;28;20500;-77
2023/03/17 12:34:21;;;;;;;2.40;1.67;;;12.80;69.20;;;;;;5092039;28;20638;-77
2023/03/17 12:36:48;;;;;;;5.53;3.13;;;12.70;70.00;;;;;;5096110;28;20492;-75
2023/03/17 12:39:23;;;;;;;2.30;1.97;;;13.00;67.00;;;;;;5102273;28;20519;-75
2023/03/17 12:42:14;;;;;;;2.40;2.20;;;12.70;63.00;;;;;;5093494;28;20973;-76
2023/03/17 12:44:59;;;;;;;2.53;2.20;;;12.90;68.00;;;;;;5092520;28;20455;-76
2023/03/17 12:47:48;;;;;;;2.50;1.93;;;13.10;67.60;;;;;;5101556;28;20451;-77
2023/03/17 12:50:44;;;;;;;4.60;2.33;;;13.10;66.00;;;;;;5100322;28;20527;-77
2023/03/17 12:53:26;;;;;;;2.93;2.10;;;13.30;63.10;;;;;;5082584;28;20818;-74
2023/03/17 12:55:59;;;;;;;4.00;1.83;;;13.20;62.90;;;;;;5102862;28;20499;-75
2023/03/17 12:58:32;;;;;;;2.57;2.20;;;13.50;66.50;;;;;;5102865;28;21020;-75
2023/03/17 13:01:07;;;;;;;2.27;1.40;;;13.70;61.70;;;;;;5103429;28;20459;-75
2023/03/17 13:03:37;;;;;;;2.40;2.20;;;13.60;66.00;;;;;;5097649;28;20465;-78
2023/03/17 13:06:07;;;;;;;7.77;2.93;;;13.60;60.80;;;;;;5101211;28;20462;-79
2023/03/17 13:08:36;;;;;;;3.43;2.20;;;13.80;61.70;;;;;;5094695;28;20439;-76